KEMP/EMP METAR and TAF weather

Enter ICAO airport designator
Station Type Date Time Source
KEMP METAR 2020/04/07 02:53 UTC NOAA

KEMP 070253Z AUTO 17007KT 10SM CLR 17/14 A2984 RMK AO2 SLP103 T01720144 51018


Station Type Date Time Source
KEMP Decoded METAR 2020/04/07 02:53 UTC NOAA

EMPORIA MUNICIPAL AIRPORT, KS, United States (KEMP) 38-20N 96-12W 367M
Apr 06, 2020 - 10:53 PM EDT / 2020.04.07 0253 UTC
Wind: from the S (170 degrees) at 8 MPH (7 KT):0
Visibility: 10 mile(s):0
Sky conditions: clear
Temperature: 63.0 F (17.2 C)
Dew Point: 57.9 F (14.4 C)
Relative Humidity: 83%
Pressure (altimeter): 29.84 in. Hg (1010 hPa)
Pressure tendency: 0.05 inches (1.8 hPa) higher than three hours ago
ob: KEMP 070253Z AUTO 17007KT 10SM CLR 17/14 A2984 RMK AO2 SLP103 T01720144 51018
cycle: 3

Station Type Date Time Source
KEMP TAF UTC NOAA

Error!

Example: see airport list